Αναφορές METAR

 

LGKZ - Kozani (civ/Army, Greece
Distance from station: ΝΔ 41km
Ενημερώθηκε: 13/12/2018 09:50
Σχεδόν νεφελώδης
Σχεδόν νεφελώδης
 Ανεμος από calm
Ανεμος: Απνοια
Θερμοκρασία: 0°C
Σημείο Δρόσου: -10°C
Υγρασία: 47%
Βαρόμετρο: 1019 hPa
Clouds: Σχεδόν νεφελώδης
Visibility: 10 km
Cloud details: Few Clouds 762 m
Σχεδόν νεφελώδης 2134 m
2018/12/13 07:50 LGKZ 130750Z 00000KT 9999 FEW025 BKN070 M00/M10 Q1019
LGTS - Thessaloniki/Mik, Greece
Distance from station: Α 64km
Ενημερώθηκε: 13/12/2018 09:50
Few Clouds
Few Clouds
 Ανεμος από varies
Ανεμος: varies 4 km/h
Θερμοκρασία: 4°C
Σημείο Δρόσου: -1°C
Υγρασία: 70%
Βαρόμετρο: 1021 hPa
Clouds: Few Clouds
Visibility: 10 km
Cloud details: Few Clouds 762 m
2018/12/13 07:50 LGTS 130750Z VRB02KT 9999 FEW025 04/M01 Q1021 NOSIG
 
LGIO - Ioannina, Greece
Distance from station: ΝΔ 149km
Ενημερώθηκε: 13/12/2018 09:50
Συννεφιά
Συννεφιά
 Ανεμος από varies
Ανεμος: varies 0 km/h
Θερμοκρασία: 2°C
Σημείο Δρόσου: 0°C
Υγρασία: 87%
Βαρόμετρο: 1017 hPa
Clouds: Συννεφιά
Visibility: 10 km
Cloud details: Μερικώς νεφελώδης 122 m
Σχεδόν νεφελώδης 762 m
Συννεφιά 1829 m
2018/12/13 07:50 LGIO 130750Z /////KT 9999 SCT004 BKN025 OVC060 02/00 Q1017
LGBL - Nea Anchialos, Greece
Distance from station: ΝΝΑ 154km
Ενημερώθηκε: 13/12/2018 09:50
Drizzle, Συννεφιά
Drizzle, Συννεφιά
 Ανεμος από ΒΔ
Ανεμος: ΒΔ 7 km/h
Θερμοκρασία: 4°C
Wind Chill: 2°C
Σημείο Δρόσου: 2°C
Υγρασία: 87%
Βαρόμετρο: 1022 hPa
Περίληψη: Drizzle
Clouds: Συννεφιά
Visibility: 8 km
Cloud details: Few Clouds 457 m
Σχεδόν νεφελώδης 762 m
Συννεφιά 2134 m
2018/12/13 07:50 LGBL 130750Z 32004KT 8000 DZ FEW015 BKN025 OVC070 04/02 Q1022
 
LGSK - Skiathos Island, Greece
Distance from station: ΝΑ 185km
Ενημερώθηκε: 13/12/2018 09:50
Ασθενής βροχή, Σχεδόν νεφελώδης
Ασθενής βροχή, Σχεδόν νεφελώδης
 Ανεμος από calm
Ανεμος: Απνοια
Θερμοκρασία: 8°C
Σημείο Δρόσου: 6°C
Υγρασία: 87%
Βαρόμετρο: 1021 hPa
Περίληψη: Ασθενής βροχή
Clouds: Σχεδόν νεφελώδης
Visibility: 7 km
Cloud details: Few Clouds 610 m
Σχεδόν νεφελώδης 762 m
2018/12/13 07:50 LGSK 130750Z 00000KT 7000 -RA FEW020 BKN025 08/06 Q1021
LGKV - Kavala/Chrisoupo, Greece
Distance from station: ΑΒΑ 208km
Ενημερώθηκε: 13/12/2018 09:50
Μερικώς νεφελώδης
Μερικώς νεφελώδης
 Ανεμος από calm
Ανεμος: Απνοια
Θερμοκρασία: 3°C
Σημείο Δρόσου: 0°C
Υγρασία: 81%
Βαρόμετρο: 1022 hPa
Clouds: Μερικώς νεφελώδης
Visibility: 10 km
Cloud details: Few Clouds 549 m
Μερικώς νεφελώδης 2438 m
2018/12/13 07:50 LGKV 130750Z 00000KT 9999 FEW018 SCT080 03/M00 Q1022
 
LGPZ - Preveza/Aktion, Greece
Distance from station: ΝΔ 217km
Ενημερώθηκε: 13/12/2018 09:50
Συννεφιά
Συννεφιά
 Ανεμος από ΒΑ
Ανεμος: ΒΑ 33 km/h
Θερμοκρασία: 8°C
Wind Chill: 3°C
Σημείο Δρόσου: 5°C
Υγρασία: 82%
Βαρόμετρο: 1018 hPa
Clouds: Συννεφιά
Visibility: 10 km
Cloud details: Few Clouds 457 m
Μερικώς νεφελώδης 914 m
Συννεφιά 2134 m
2018/12/13 07:50 LGPZ 130750Z 05018KT 9999 FEW015 SCT030 OVC070 08/05 Q1018
LGKR - Ioannis Kapodist, Greece
Distance from station: ΔΝΔ 219km
Ενημερώθηκε: 13/12/2018 09:50
Συννεφιά
Συννεφιά
 Ανεμος από Α
Ανεμος: Α 13 km/h
Θερμοκρασία: 10°C
Wind Chill: 8°C
Σημείο Δρόσου: 5°C
Υγρασία: 71%
Βαρόμετρο: 1016 hPa
Clouds: Συννεφιά
Visibility: 10 km
Cloud details: Few Clouds 610 m
Σχεδόν νεφελώδης 1219 m
Συννεφιά 2438 m
2018/12/13 07:50 LGKR 130750Z 10007KT 9999 FEW020 BKN040 OVC080 10/05 Q1016 NOSIG
 
LGSY - Skiros, Greece
Distance from station: ΝΑ 261km
Ενημερώθηκε: 13/12/2018 09:50
Βροχή, Μερικώς νεφελώδης
Βροχή, Μερικώς νεφελώδης
 Ανεμος από ΝΔ
Ανεμος: ΝΔ 15 km/h
Θερμοκρασία: 8°C
Wind Chill: 5°C
Σημείο Δρόσου: 5°C
Υγρασία: 82%
Βαρόμετρο: 1021 hPa
Περίληψη: Βροχή
Clouds: Μερικώς νεφελώδης
Visibility: 7 km
Cloud details: Few Clouds 396 m
Μερικώς νεφελώδης 610 m
2018/12/13 07:50 LGSY 130750Z 23008KT 7000 RA FEW013 SCT020 08/05 Q1021 RMK OVC080 WHT
LGLM - Limnos Island Ar, Greece
Distance from station: ΑΝΑ 266km
Ενημερώθηκε: 13/12/2018 09:50
Few Clouds
Few Clouds
 Ανεμος από calm
Ανεμος: Απνοια
Θερμοκρασία: 7°C
Σημείο Δρόσου: 5°C
Υγρασία: 87%
Βαρόμετρο: 1021 hPa
Clouds: Few Clouds
Visibility: 10 km
Cloud details: Few Clouds 610 m
2018/12/13 07:50 LGLM 130750Z 00000KT 9999 FEW020 07/05 Q1021
 
LGRX - Araxos (civ/Afb), Greece
Distance from station: ΝΝΔ 271km
Ενημερώθηκε: 13/12/2018 09:50
Ασθενής βροχή, Συννεφιά
Ασθενής βροχή, Συννεφιά
 Ανεμος από calm
Ανεμος: Απνοια
Θερμοκρασία: 10°C
Σημείο Δρόσου: 7°C
Υγρασία: 82%
Βαρόμετρο: 1016 hPa
Περίληψη: Ασθενής βροχή
Clouds: Συννεφιά
Visibility: 8 km
Cloud details: Few Clouds 366 m
Σχεδόν νεφελώδης 914 m
Συννεφιά 2438 m
2018/12/13 07:50 LGRX 130750Z 00000KT 8000 -RA FEW012 BKN030 OVC080 10/07 Q1016
LGEL - Elefsis (hel-Afb, Greece
Distance from station: ΝΝΑ 297km
Ενημερώθηκε: 13/12/2018 09:50
Ασθενής βροχή, Συννεφιά
Ασθενής βροχή, Συννεφιά
 Ανεμος από Β
Ανεμος: Β 13 km/h
Θερμοκρασία: 7°C
Wind Chill: 5°C
Σημείο Δρόσου: 6°C
Υγρασία: 93%
Βαρόμετρο: 1020 hPa
Περίληψη: Ασθενής βροχή
Clouds: Συννεφιά
Visibility: 8 km
Cloud details: Μερικώς νεφελώδης 610 m
Σχεδόν νεφελώδης 762 m
Συννεφιά 2134 m
2018/12/13 07:50 LGEL 130750Z 35007KT 8000 -RA SCT020 BKN025 OVC070 07/06 Q1020
 
LGAD - Andravida (civ/A, Greece
Distance from station: ΝΝΔ 301km
Ενημερώθηκε: 13/12/2018 09:50
Ασθενής βροχή, Σχεδόν νεφελώδης
Ασθενής βροχή, Σχεδόν νεφελώδης
 Ανεμος από ΑΒΑ
Ανεμος: ΑΒΑ 7 km/h
Θερμοκρασία: 8°C
Wind Chill: 7°C
Σημείο Δρόσου: 8°C
Υγρασία: 100%
Βαρόμετρο: 1016 hPa
Περίληψη: Ασθενής βροχή
Clouds: Σχεδόν νεφελώδης
Visibility: 8 km
Cloud details: Few Clouds 549 m
Σχεδόν νεφελώδης 762 m
Σχεδόν νεφελώδης 2438 m
2018/12/13 07:50 LGAD 130750Z 07004KT 8000 -RA FEW018TCU BKN025 BKN080 08/08 Q1016
LGKF - Kefallinia, Greece
Distance from station: ΝΝΔ 305km
Ενημερώθηκε: 13/12/2018 09:50
Σχεδόν νεφελώδης
Σχεδόν νεφελώδης
 Ανεμος από Α
Ανεμος: Α 17 km/h
Θερμοκρασία: 12°C
Σημείο Δρόσου: 10°C
Υγρασία: 88%
Βαρόμετρο: 1015 hPa
Clouds: Σχεδόν νεφελώδης
Visibility: 10 km
Cloud details: Few Clouds 366 m
Few Clouds 549 m
Μερικώς νεφελώδης 610 m
Σχεδόν νεφελώδης 2134 m
2018/12/13 07:50 LGKF 130750Z 08009KT 9999 FEW012 FEW018TCU SCT020 BKN070 12/10 Q1015